Aérodrome :
LOGIN :

S'inscrire | Disclaimer

   EN    FR    IT 

 










Légende :    VFR   VFR Marginal   IFR   IFR Intensif   IFR Très Intensif
Visi : 
Plafond : 
>= 8 km
>= 3000ft
5 à 8 km
1000 à 3000 ft
1500m à 5 km
500 à 1000 ft
800 à 1500m
200 à 500 ft
< 800m
< 200 ft
Symboles :   Orages  Brouillard  Fortes neiges  Fortes précipitations  Vent > 20 kt
SIGMETs :   Divers  Orages  Givrage  Turbulence  Onde Orograph.  Cendres Volcan.






- Altitude de l'aérodrome : 20 ft


EBFN - Koksijde

DERNIER METAR :
  • 091825Z AUTO 36003KT 9999 -RA BKN022/// BKN086/// 04/01 Q1006 WHT

METARs EXPIRÉS :
  • 091820Z AUTO 01007KT 4600 -RA BKN023/// BKN057/// BKN088/// 04/01 Q1006 GRN
  • 091755Z AUTO 35005KT 9999 SCT016/// BKN035/// BKN089/// 05/01 Q1006 WHT
  • 091737Z AUTO 34005KT 9999 SCT016/// BKN057/// 04/02 Q1006 WHT
  • 091725Z AUTO 34004KT 9999 FEW016/// OVC058/// 04/02 Q1006 BLU
  • 091655Z AUTO 36007KT 9999 OVC054/// 04/00 Q1006 BLU
  • 091625Z AUTO 02009KT 9999 -DZ OVC053/// 04/00 Q1006 BLU
  • 091555Z AUTO 01010KT 9999 FEW021/// SCT059/// BKN075/// 04/02 Q1006 BLU

TAF TAF EBFN
Valide du 09 à 19h jusqu'au 10 à 07h UTC


091541Z 0919/1007 VRB05KT 9999 SCT025 SCT040
TEMPO 0919/0921 4000 SHRASN BKN012TCU
BECMG 0919/0921 2000 BR BKN003
TEMPO 0919/1007 0100 FZFG OVC001



MET'MAP, la Météo Aéronautique d'un coup d'oeil ! - Copyright ORBIFLY Décembre 2007 - Disclaimer

ORBIFLY MET'MAP TEAM :

Programmation & Développement : Alexandra Zaïnal
Sur une idée originale de : Baudouin d'Aumeries
Soutien technique & logistique : Manuel Goepfert
Assistance : Marc-Olivier Méhu




SOURCES & CREDITS :

   NOAA